createdAt,value
2023-07-17T00:00:04.859Z,4.38
2023-07-17T00:02:32.265Z,4.18
2023-07-17T00:05:01.084Z,4.43
2023-07-17T00:07:28.462Z,4.47
2023-07-17T00:09:55.817Z,4.57
2023-07-17T00:12:23.275Z,4.43
2023-07-17T00:14:50.636Z,4.65
2023-07-17T00:17:18.088Z,4.25
2023-07-17T00:19:54.035Z,5.10
2023-07-17T00:22:22.916Z,4.03
2023-07-17T00:24:50.503Z,4.43
2023-07-17T00:27:17.905Z,4.60
2023-07-17T00:29:45.416Z,3.58
2023-07-17T00:32:13.673Z,4.22
2023-07-17T00:34:41.646Z,3.90
2023-07-17T00:37:09.459Z,3.92
2023-07-17T00:39:38.186Z,3.97
2023-07-17T00:42:05.964Z,3.90
2023-07-17T00:44:33.410Z,3.78
2023-07-17T00:47:01.025Z,3.53
2023-07-17T00:49:30.072Z,3.53
2023-07-17T00:51:58.162Z,3.33
2023-07-17T00:54:26.050Z,3.50
2023-07-17T00:56:54.960Z,3.70
2023-07-17T00:59:22.366Z,3.55
2023-07-17T01:01:49.875Z,3.60
2023-07-17T01:04:17.386Z,3.30
2023-07-17T01:06:44.770Z,3.72
2023-07-17T01:09:12.977Z,3.50
2023-07-17T01:11:41.252Z,2.95
2023-07-17T01:14:15.464Z,3.15
2023-07-17T01:16:43.034Z,3.22
2023-07-17T01:19:10.422Z,3.28
2023-07-17T01:21:40.191Z,3.13
2023-07-17T01:24:09.176Z,3.03
2023-07-17T01:26:36.536Z,3.35
2023-07-17T01:29:04.446Z,3.45
2023-07-17T01:31:31.888Z,2.95
2023-07-17T01:33:59.281Z,2.90
2023-07-17T01:36:27.631Z,3.10
2023-07-17T01:38:56.391Z,2.78
2023-07-17T01:41:25.689Z,2.85
2023-07-17T01:43:53.265Z,3.35
2023-07-17T01:46:20.667Z,2.75
2023-07-17T01:48:48.116Z,3.00
2023-07-17T01:51:15.709Z,3.05
2023-07-17T01:53:43.298Z,2.80
2023-07-17T01:56:10.688Z,2.90
2023-07-17T01:58:39.382Z,3.13
2023-07-17T02:01:08.544Z,2.92
2023-07-17T02:03:37.250Z,3.00
2023-07-17T02:06:04.768Z,2.97
2023-07-17T02:08:32.164Z,2.63
2023-07-17T02:10:59.605Z,2.80
2023-07-17T02:13:26.955Z,3.20
2023-07-17T02:15:55.642Z,3.60
2023-07-17T02:18:23.049Z,2.47
2023-07-17T02:20:50.766Z,3.47
2023-07-17T02:23:18.136Z,3.30
2023-07-17T02:25:45.549Z,3.40
2023-07-17T02:28:12.876Z,3.10
2023-07-17T02:30:40.273Z,3.47
2023-07-17T02:33:09.107Z,3.25
2023-07-17T02:35:36.509Z,3.05
2023-07-17T02:38:04.068Z,3.33
2023-07-17T02:40:31.484Z,3.25
2023-07-17T02:42:58.835Z,3.42
2023-07-17T02:45:26.247Z,3.22
2023-07-17T02:47:54.347Z,3.55
2023-07-17T02:50:23.117Z,3.08
2023-07-17T02:52:50.528Z,3.20
2023-07-17T02:55:17.913Z,2.85
2023-07-17T02:57:45.387Z,2.53
2023-07-17T03:00:13.733Z,3.03
2023-07-17T03:02:42.073Z,3.63
2023-07-17T03:05:10.425Z,3.40
2023-07-17T03:07:39.970Z,2.97
2023-07-17T03:10:08.108Z,3.53
2023-07-17T03:12:35.569Z,3.33
2023-07-17T03:15:02.993Z,3.60
2023-07-17T03:17:30.387Z,3.53
2023-07-17T03:19:57.799Z,3.60
2023-07-17T03:22:25.217Z,3.20
2023-07-17T03:24:53.971Z,3.08
2023-07-17T03:27:22.496Z,3.65
2023-07-17T03:29:49.875Z,3.88
2023-07-17T03:32:17.291Z,4.15
2023-07-17T03:34:44.696Z,3.45
2023-07-17T03:37:12.099Z,3.80
2023-07-17T03:39:39.498Z,3.45
2023-07-17T03:42:12.058Z,3.38
2023-07-17T03:44:39.875Z,3.83
2023-07-17T03:47:07.869Z,3.70
2023-07-17T03:49:35.426Z,3.28
2023-07-17T03:52:02.980Z,3.53
2023-07-17T03:54:30.356Z,3.22
2023-07-17T03:56:57.856Z,3.60
2023-07-17T03:59:27.210Z,3.45
2023-07-17T04:01:54.571Z,3.75
2023-07-17T04:04:24.088Z,3.50
2023-07-17T04:06:51.456Z,3.80
2023-07-17T04:09:18.884Z,3.90
2023-07-17T04:11:47.695Z,3.50
2023-07-17T04:14:15.860Z,3.25
2023-07-17T04:16:45.399Z,3.70
2023-07-17T04:19:12.861Z,3.60
2023-07-17T04:21:40.216Z,3.58
2023-07-17T04:24:07.686Z,3.95
2023-07-17T04:26:35.115Z,3.92
2023-07-17T04:29:02.492Z,3.08
2023-07-17T04:31:29.900Z,3.58
2023-07-17T04:33:58.658Z,3.88
2023-07-17T04:36:26.050Z,3.45
2023-07-17T04:38:53.403Z,3.80
2023-07-17T04:41:20.820Z,3.53
2023-07-17T04:43:48.201Z,3.53
2023-07-17T04:46:15.663Z,3.70
2023-07-17T04:48:43.121Z,3.10
2023-07-17T04:51:11.813Z,3.50
2023-07-17T04:53:39.149Z,3.65
2023-07-17T04:56:07.183Z,3.28
2023-07-17T04:58:34.553Z,3.17
2023-07-17T05:01:02.244Z,3.22
2023-07-17T05:03:29.879Z,3.17
2023-07-17T05:05:57.505Z,3.00
2023-07-17T05:08:26.675Z,2.78
2023-07-17T05:10:54.623Z,2.90
2023-07-17T05:13:22.000Z,3.20
2023-07-17T05:15:49.483Z,3.33
2023-07-17T05:18:16.873Z,2.97
2023-07-17T05:20:45.196Z,2.50
2023-07-17T05:23:12.704Z,3.05
2023-07-17T05:25:41.725Z,2.53
2023-07-17T05:28:09.220Z,2.75
2023-07-17T05:30:37.038Z,2.80
2023-07-17T05:33:04.608Z,2.92
2023-07-17T05:35:32.389Z,2.75
2023-07-17T05:37:59.742Z,2.50
2023-07-17T05:40:28.478Z,2.65
2023-07-17T05:42:58.699Z,3.05
2023-07-17T05:45:26.045Z,2.60
2023-07-17T05:47:53.433Z,2.70
2023-07-17T05:50:21.206Z,2.78
2023-07-17T05:52:48.592Z,3.20
2023-07-17T05:55:16.001Z,3.33
2023-07-17T05:57:43.451Z,3.03
2023-07-17T06:00:14.026Z,2.88
2023-07-17T06:02:41.914Z,2.80
2023-07-17T06:05:09.873Z,2.58
2023-07-17T06:07:37.306Z,2.88
2023-07-17T06:10:05.066Z,2.97
2023-07-17T06:12:32.481Z,3.08
2023-07-17T06:14:59.837Z,2.60
2023-07-17T06:17:28.578Z,2.70
2023-07-17T06:19:55.939Z,2.92
2023-07-17T06:22:23.830Z,2.60
2023-07-17T06:24:51.624Z,2.70
2023-07-17T06:27:18.978Z,2.83
2023-07-17T06:29:46.360Z,2.50
2023-07-17T06:32:14.629Z,2.90
2023-07-17T06:34:43.514Z,2.88
2023-07-17T06:37:10.882Z,3.63
2023-07-17T06:39:38.230Z,2.97
2023-07-17T06:42:05.755Z,2.80
2023-07-17T06:44:33.080Z,3.08
2023-07-17T06:47:00.431Z,3.20
2023-07-17T06:49:27.809Z,3.78
2023-07-17T06:51:56.593Z,3.13
2023-07-17T06:54:23.956Z,3.47
2023-07-17T06:56:51.320Z,3.58
2023-07-17T06:59:18.753Z,3.80
2023-07-17T07:01:46.122Z,3.40
2023-07-17T07:04:13.593Z,3.10
2023-07-17T07:06:41.121Z,3.75
2023-07-17T07:09:09.884Z,3.55
2023-07-17T07:11:37.281Z,4.13
2023-07-17T07:14:04.668Z,4.13
2023-07-17T07:16:32.075Z,3.60
2023-07-17T07:18:59.516Z,3.38
2023-07-17T07:21:26.933Z,3.47
2023-07-17T07:23:54.294Z,4.40
2023-07-17T07:26:23.034Z,3.55
2023-07-17T07:28:50.388Z,4.18
2023-07-17T07:31:17.796Z,3.90
2023-07-17T07:33:45.158Z,3.58
2023-07-17T07:36:12.544Z,4.22
2023-07-17T07:38:39.925Z,3.78
2023-07-17T07:41:07.351Z,4.18
2023-07-17T07:43:36.080Z,3.47
2023-07-17T07:46:03.633Z,4.03
2023-07-17T07:48:32.513Z,3.35
2023-07-17T07:50:59.985Z,3.63
2023-07-17T07:53:27.366Z,3.95
2023-07-17T07:55:54.752Z,3.92
2023-07-17T07:58:22.100Z,4.10
2023-07-17T08:00:51.329Z,4.38
2023-07-17T08:03:18.799Z,4.43
2023-07-17T08:05:46.194Z,4.75
2023-07-17T08:08:13.566Z,4.43
2023-07-17T08:10:41.268Z,4.38
2023-07-17T08:13:08.661Z,4.30
2023-07-17T08:15:36.020Z,4.03
2023-07-17T08:18:05.245Z,4.35
2023-07-17T08:20:32.572Z,4.75
2023-07-17T08:23:00.048Z,4.60
2023-07-17T08:25:27.434Z,5.88
2023-07-17T08:27:55.647Z,4.43
2023-07-17T08:30:23.000Z,4.68
2023-07-17T08:32:51.415Z,4.60
2023-07-17T08:35:20.903Z,4.55
2023-07-17T08:37:48.352Z,4.20
2023-07-17T08:40:15.729Z,4.60
2023-07-17T08:42:45.830Z,3.42
2023-07-17T08:45:14.166Z,5.15
2023-07-17T08:47:41.679Z,4.53
2023-07-17T08:50:09.577Z,5.10
2023-07-17T08:52:38.424Z,4.38
2023-07-17T08:55:06.543Z,5.10
2023-07-17T08:57:34.642Z,4.05
2023-07-17T09:00:02.450Z,4.45
2023-07-17T09:02:29.894Z,4.50
2023-07-17T09:04:57.324Z,4.43
2023-07-17T09:07:25.277Z,4.32
2023-07-17T09:10:07.587Z,4.50
2023-07-17T09:12:36.295Z,4.03
2023-07-17T09:15:04.036Z,4.57
2023-07-17T09:17:37.171Z,4.50
2023-07-17T09:20:09.942Z,4.38
2023-07-17T09:22:37.332Z,4.47
2023-07-17T09:25:05.479Z,4.07
2023-07-17T09:27:43.170Z,4.68
2023-07-17T09:30:13.662Z,4.28
2023-07-17T09:32:41.344Z,4.57
2023-07-17T09:35:09.686Z,3.97
2023-07-17T09:37:37.563Z,4.55
2023-07-17T09:40:08.216Z,4.50
2023-07-17T09:42:35.579Z,4.38
2023-07-17T09:45:03.319Z,4.43
2023-07-17T09:47:33.008Z,4.70
2023-07-17T09:50:01.899Z,4.03
2023-07-17T09:52:29.978Z,4.60
2023-07-17T09:54:58.282Z,4.35
2023-07-17T09:57:28.815Z,3.88
2023-07-17T09:59:57.152Z,4.88
2023-07-17T10:02:26.560Z,3.95
2023-07-17T10:04:56.393Z,4.07
2023-07-17T10:07:23.786Z,3.90
2023-07-17T10:09:51.294Z,4.05
2023-07-17T10:12:18.940Z,4.13
2023-07-17T10:14:46.620Z,4.57
2023-07-17T10:17:26.896Z,4.50
2023-07-17T10:19:57.423Z,4.55
2023-07-17T10:22:29.248Z,4.45
2023-07-17T10:24:57.022Z,4.53
2023-07-17T10:27:37.682Z,4.00
2023-07-17T10:30:20.872Z,5.03
2023-07-17T10:32:48.249Z,4.63
2023-07-17T10:35:21.911Z,4.22
2023-07-17T10:37:49.277Z,3.85
2023-07-17T10:40:29.747Z,4.68
2023-07-17T10:42:57.099Z,4.53
2023-07-17T10:45:35.477Z,4.95
2023-07-17T10:48:03.144Z,3.60
2023-07-17T10:50:31.960Z,4.90
2023-07-17T10:53:02.369Z,4.25
2023-07-17T10:55:29.770Z,4.10
2023-07-17T10:57:58.318Z,4.25
2023-07-17T11:00:25.651Z,3.75
2023-07-17T11:02:53.057Z,3.60
2023-07-17T11:05:20.671Z,4.00
2023-07-17T11:07:49.383Z,3.08
2023-07-17T11:10:16.788Z,3.67
2023-07-17T11:12:44.538Z,3.53
2023-07-17T11:15:15.528Z,3.55
2023-07-17T11:17:43.135Z,3.97
2023-07-17T11:20:11.089Z,4.00
2023-07-17T11:22:41.539Z,4.28
2023-07-17T11:25:11.982Z,4.10
2023-07-17T11:27:41.499Z,5.05
2023-07-17T11:30:16.554Z,4.55
2023-07-17T11:32:43.932Z,4.95
2023-07-17T11:35:13.622Z,4.63
2023-07-17T11:37:41.580Z,4.60
2023-07-17T11:40:10.869Z,4.25
2023-07-17T11:42:53.095Z,4.80
2023-07-17T11:45:21.538Z,4.75
2023-07-17T11:47:48.993Z,4.22
2023-07-17T11:50:20.065Z,4.65
2023-07-17T11:52:47.553Z,4.30
2023-07-17T11:55:20.955Z,4.50
2023-07-17T11:58:02.873Z,4.63
2023-07-17T12:00:31.636Z,4.38
2023-07-17T12:02:59.004Z,3.97
2023-07-17T12:05:26.500Z,4.82
2023-07-17T12:07:53.904Z,4.97
2023-07-17T12:10:22.621Z,4.32
2023-07-17T12:12:50.046Z,4.65
2023-07-17T12:15:18.303Z,3.70
2023-07-17T12:17:45.722Z,3.70
2023-07-17T12:20:16.722Z,3.80
2023-07-17T12:22:44.441Z,4.18
2023-07-17T12:25:11.796Z,4.20
2023-07-17T12:27:40.498Z,4.93
2023-07-17T12:30:08.569Z,4.75
2023-07-17T12:32:35.956Z,4.90
2023-07-17T12:35:03.321Z,4.20
2023-07-17T12:37:31.656Z,4.20
2023-07-17T12:39:59.155Z,4.53
2023-07-17T12:42:26.507Z,4.03
2023-07-17T12:44:56.174Z,4.43
2023-07-17T12:47:23.577Z,3.72
2023-07-17T12:49:51.226Z,3.78
2023-07-17T12:52:18.649Z,4.00
2023-07-17T12:54:46.019Z,3.60
2023-07-17T12:57:16.321Z,4.22
2023-07-17T12:59:43.868Z,4.30
2023-07-17T13:02:12.663Z,5.10
2023-07-17T13:04:40.131Z,4.53
2023-07-17T13:07:07.509Z,4.35
2023-07-17T13:09:35.345Z,4.20
2023-07-17T13:12:02.879Z,4.45
2023-07-17T13:14:30.252Z,4.72
2023-07-17T13:16:58.209Z,4.50
2023-07-17T13:19:27.140Z,5.25
2023-07-17T13:21:54.662Z,4.55
2023-07-17T13:24:22.056Z,4.15
2023-07-17T13:26:49.599Z,4.40
2023-07-17T13:29:17.010Z,3.97
2023-07-17T13:31:44.462Z,3.78
2023-07-17T13:34:11.976Z,4.60
2023-07-17T13:36:40.822Z,4.43
2023-07-17T13:39:08.785Z,4.15
2023-07-17T13:41:43.590Z,4.65
2023-07-17T13:44:11.129Z,3.80
2023-07-17T13:46:38.759Z,4.13
2023-07-17T13:49:06.593Z,3.47
2023-07-17T13:51:34.075Z,4.18
2023-07-17T13:54:02.895Z,4.05
2023-07-17T13:59:02.570Z,3.88
2023-07-17T14:01:29.992Z,3.75
2023-07-17T14:03:59.653Z,3.80
2023-07-17T14:06:29.632Z,3.85
2023-07-17T14:08:56.984Z,3.78
2023-07-17T14:11:27.999Z,3.88
2023-07-17T14:13:59.901Z,3.72
2023-07-17T14:16:27.277Z,4.50
2023-07-17T14:18:54.786Z,4.20
2023-07-17T14:21:22.658Z,3.95
2023-07-17T14:23:50.316Z,4.05
2023-07-17T14:26:18.053Z,4.00
2023-07-17T14:28:46.966Z,4.00
2023-07-17T14:31:14.438Z,3.42
2023-07-17T14:33:41.823Z,3.72
2023-07-17T14:36:09.190Z,3.25
2023-07-17T14:38:39.067Z,3.75
2023-07-17T14:41:06.505Z,2.70
2023-07-17T14:43:34.229Z,3.60
2023-07-17T14:46:02.977Z,3.35
2023-07-17T14:48:31.978Z,3.67
2023-07-17T14:50:59.667Z,3.15
2023-07-17T14:53:27.126Z,3.50
2023-07-17T14:55:54.473Z,2.92
2023-07-17T14:58:21.821Z,3.50
2023-07-17T15:00:49.244Z,3.22
2023-07-17T15:03:18.193Z,3.20
2023-07-17T15:05:45.631Z,3.72
2023-07-17T15:08:12.983Z,3.65
2023-07-17T15:10:40.415Z,3.20
2023-07-17T15:13:07.794Z,3.20
2023-07-17T15:15:35.311Z,3.58
2023-07-17T15:18:03.469Z,2.80
2023-07-17T15:20:32.233Z,2.60
2023-07-17T15:22:59.662Z,2.70
2023-07-17T15:25:27.110Z,2.42
2023-07-17T15:27:54.508Z,3.10
2023-07-17T15:30:22.042Z,1.88
2023-07-17T15:32:49.483Z,2.28
2023-07-17T15:35:16.960Z,2.30
2023-07-17T15:37:45.721Z,2.17
2023-07-17T15:40:13.163Z,1.85
2023-07-17T15:42:40.513Z,2.30
2023-07-17T15:45:08.542Z,2.25
2023-07-17T15:47:36.139Z,1.95
2023-07-17T15:50:03.720Z,2.50
2023-07-17T15:52:31.230Z,2.30
2023-07-17T15:55:00.063Z,2.53
2023-07-17T15:57:27.445Z,2.30
2023-07-17T15:59:54.792Z,2.60
2023-07-17T16:02:22.257Z,2.10
2023-07-17T16:04:49.637Z,2.55
2023-07-17T16:07:17.120Z,2.92
2023-07-17T16:09:44.458Z,2.63
2023-07-17T16:12:13.163Z,2.38
2023-07-17T16:14:44.924Z,2.83
2023-07-17T16:17:12.517Z,3.22
2023-07-17T16:19:41.115Z,3.75
2023-07-17T16:22:08.636Z,3.92
2023-07-17T16:24:36.069Z,3.17
2023-07-17T16:27:03.641Z,3.80
2023-07-17T16:29:32.403Z,2.60
2023-07-17T16:31:59.942Z,3.00
2023-07-17T16:34:27.289Z,2.35
2023-07-17T16:36:55.074Z,2.70
2023-07-17T16:39:22.482Z,2.60
2023-07-17T16:41:49.843Z,2.97
2023-07-17T16:44:17.342Z,2.28
2023-07-17T16:46:47.751Z,2.72
2023-07-17T16:49:15.608Z,2.58
2023-07-17T16:51:42.969Z,1.98
2023-07-17T16:54:10.648Z,2.92
2023-07-17T16:56:38.011Z,1.60
2023-07-17T16:59:06.000Z,1.25
2023-07-17T17:01:33.516Z,1.20
2023-07-17T17:04:02.908Z,1.48
2023-07-17T17:06:30.605Z,1.77
2023-07-17T17:09:10.427Z,1.55
2023-07-17T17:11:37.853Z,1.67
2023-07-17T17:14:05.237Z,1.50
2023-07-17T17:16:32.666Z,2.38
2023-07-17T17:19:00.096Z,2.08
2023-07-17T17:21:29.748Z,2.00
2023-07-17T17:23:57.517Z,2.00
2023-07-17T17:26:24.940Z,1.98
2023-07-17T17:28:52.413Z,1.55
2023-07-17T17:31:20.226Z,1.52
2023-07-17T17:33:47.811Z,1.70
2023-07-17T17:36:15.167Z,1.83
2023-07-17T17:38:43.969Z,1.60
2023-07-17T17:41:11.789Z,1.80
2023-07-17T17:43:39.126Z,1.67
2023-07-17T17:46:06.630Z,1.77
2023-07-17T17:48:34.039Z,1.45
2023-07-17T17:51:01.462Z,2.08
2023-07-17T17:53:29.330Z,2.78
2023-07-17T17:55:58.078Z,1.85
2023-07-17T17:58:25.656Z,1.70
2023-07-17T18:00:53.393Z,1.70
2023-07-17T18:03:21.281Z,1.88
2023-07-17T18:05:48.831Z,2.30
2023-07-17T18:08:16.170Z,1.90
2023-07-17T18:10:43.601Z,1.90
2023-07-17T18:13:12.334Z,1.83
2023-07-17T18:15:39.780Z,2.20
2023-07-17T18:18:09.041Z,1.80
2023-07-17T18:20:36.508Z,1.98
2023-07-17T18:23:04.035Z,2.28
2023-07-17T18:25:31.487Z,2.17
2023-07-17T18:27:59.035Z,4.18
2023-07-17T18:30:27.808Z,4.18
2023-07-17T18:32:55.273Z,2.20
2023-07-17T18:35:22.815Z,2.20
2023-07-17T18:37:50.396Z,2.30
2023-07-17T18:40:17.792Z,2.30
2023-07-17T18:42:45.212Z,2.35
2023-07-17T18:45:12.611Z,2.35
2023-07-17T18:47:41.341Z,2.60
2023-07-17T18:50:09.152Z,2.40
2023-07-17T18:52:36.745Z,2.30
2023-07-17T18:55:04.635Z,2.30
2023-07-17T18:57:31.976Z,2.00
2023-07-17T19:00:01.161Z,2.22
2023-07-17T19:02:28.818Z,2.28
2023-07-17T19:04:57.573Z,2.15
2023-07-17T19:07:24.997Z,2.17
2023-07-17T19:09:52.759Z,2.00
2023-07-17T19:12:20.419Z,2.20
2023-07-17T19:14:47.818Z,2.25
2023-07-17T19:17:15.261Z,2.22
2023-07-17T19:19:42.612Z,1.98
2023-07-17T19:22:11.363Z,2.08
2023-07-17T19:24:38.913Z,2.38
2023-07-17T19:27:09.750Z,2.05
2023-07-17T19:29:37.297Z,2.40
2023-07-17T19:32:04.934Z,2.08
2023-07-17T19:34:32.326Z,2.22
2023-07-17T19:36:59.683Z,2.08
2023-07-17T19:39:29.142Z,2.30
2023-07-17T19:41:56.550Z,2.10
2023-07-17T19:44:23.922Z,2.10
2023-07-17T19:46:51.273Z,2.20
2023-07-17T19:49:19.797Z,2.50
2023-07-17T19:51:47.158Z,2.72
2023-07-17T19:54:16.661Z,2.20
2023-07-17T19:56:45.384Z,2.33
2023-07-17T19:59:12.852Z,2.80
2023-07-17T20:01:40.216Z,2.45
2023-07-17T20:04:11.714Z,2.78
2023-07-17T20:06:39.436Z,2.38
2023-07-17T20:09:06.828Z,2.60
2023-07-17T20:11:34.209Z,2.65
2023-07-17T20:14:02.979Z,2.50
2023-07-17T20:16:30.402Z,2.50
2023-07-17T20:18:57.741Z,2.67
2023-07-17T20:21:25.877Z,2.60
2023-07-17T20:23:53.750Z,3.17
2023-07-17T20:26:21.927Z,2.80
2023-07-17T20:28:49.646Z,2.90
2023-07-17T20:31:18.620Z,3.10
2023-07-17T20:33:46.583Z,2.80
2023-07-17T20:36:13.953Z,2.85
2023-07-17T20:38:41.277Z,3.10
2023-07-17T20:41:08.648Z,2.63
2023-07-17T20:43:36.031Z,2.60
2023-07-17T20:46:03.642Z,3.00
2023-07-17T20:48:32.574Z,2.63
2023-07-17T20:51:03.797Z,3.30
2023-07-17T20:53:31.199Z,2.80
2023-07-17T20:55:58.603Z,2.97
2023-07-17T20:58:25.988Z,2.90
2023-07-17T21:00:59.788Z,3.05
2023-07-17T21:03:27.248Z,2.63
2023-07-17T21:05:55.993Z,2.63
2023-07-17T21:08:26.603Z,2.92
2023-07-17T21:10:54.775Z,2.67
2023-07-17T21:13:22.197Z,2.22
2023-07-17T21:15:49.631Z,3.03
2023-07-17T21:18:17.116Z,3.38
2023-07-17T21:20:44.486Z,2.80
2023-07-17T21:23:13.428Z,3.38
2023-07-17T21:25:41.048Z,3.00
2023-07-17T21:28:08.413Z,2.72
2023-07-17T21:30:35.791Z,2.80
2023-07-17T21:33:03.309Z,3.10
2023-07-17T21:35:30.742Z,2.72
2023-07-17T21:37:58.134Z,3.22
2023-07-17T21:40:26.890Z,2.78
2023-07-17T21:42:54.556Z,2.95
2023-07-17T21:45:22.013Z,3.22
2023-07-17T21:47:49.466Z,2.97
2023-07-17T21:50:17.267Z,3.50
2023-07-17T21:52:45.486Z,2.80
2023-07-17T21:55:12.976Z,3.22
2023-07-17T21:57:41.991Z,3.22
2023-07-17T22:00:11.975Z,3.30
2023-07-17T22:02:39.634Z,3.63
2023-07-17T22:05:07.226Z,3.25
2023-07-17T22:07:35.231Z,3.60
2023-07-17T22:10:02.599Z,3.35
2023-07-17T22:12:30.409Z,3.10
2023-07-17T22:14:59.298Z,3.50
2023-07-17T22:17:26.670Z,3.10
2023-07-17T22:19:54.048Z,3.53
2023-07-17T22:22:21.814Z,3.53
2023-07-17T22:24:51.110Z,3.42
2023-07-17T22:27:18.929Z,3.63
2023-07-17T22:29:46.378Z,4.50
2023-07-17T22:32:16.797Z,3.42
2023-07-17T22:34:44.713Z,3.50
2023-07-17T22:37:13.550Z,3.85
2023-07-17T22:39:41.035Z,3.78
2023-07-17T22:42:09.370Z,3.10
2023-07-17T22:44:36.727Z,3.67
2023-07-17T22:47:04.342Z,3.42
2023-07-17T22:49:33.165Z,3.85
2023-07-17T22:52:01.151Z,3.65
2023-07-17T22:54:29.308Z,3.25
2023-07-17T22:56:56.829Z,3.30
2023-07-17T22:59:24.450Z,3.25
2023-07-17T23:01:51.896Z,3.45
2023-07-17T23:04:19.451Z,4.00
2023-07-17T23:06:48.186Z,3.60
2023-07-17T23:09:15.541Z,3.30
2023-07-17T23:11:42.954Z,3.10
2023-07-17T23:14:10.917Z,3.33
2023-07-17T23:16:39.279Z,3.50
2023-07-17T23:19:06.922Z,3.33
2023-07-17T23:21:34.411Z,3.33
2023-07-17T23:24:03.318Z,3.97
2023-07-17T23:26:30.781Z,3.50
2023-07-17T23:28:58.157Z,4.15
2023-07-17T23:31:25.633Z,3.80
2023-07-17T23:33:53.028Z,3.55
2023-07-17T23:36:20.401Z,3.20
2023-07-17T23:38:47.743Z,3.25
2023-07-17T23:41:16.651Z,3.88
2023-07-17T23:43:45.439Z,3.63
2023-07-17T23:46:12.828Z,3.45
2023-07-17T23:48:40.189Z,3.95
2023-07-17T23:51:07.591Z,3.67
2023-07-17T23:53:34.985Z,3.70
2023-07-17T23:56:05.872Z,3.20
2023-07-17T23:58:34.610Z,3.75
